sensor_id;sensor_type;location;lat;lon;timestamp;pressure;altitude;pressure_sealevel;temperature;humidity
30708;BME280;17458;48.958;8.284;2023-05-03T00:00:55;101260.03;;;13.04;59.80
30708;BME280;17458;48.958;8.284;2023-05-03T00:03:43;101252.34;;;12.94;60.05
30708;BME280;17458;48.958;8.284;2023-05-03T00:06:28;101260.63;;;12.52;61.21
30708;BME280;17458;48.958;8.284;2023-05-03T00:09:12;101255.00;;;12.78;60.72
30708;BME280;17458;48.958;8.284;2023-05-03T00:11:57;101259.16;;;12.57;61.21
30708;BME280;17458;48.958;8.284;2023-05-03T00:14:41;101265.88;;;12.50;61.94
30708;BME280;17458;48.958;8.284;2023-05-03T00:17:25;101260.63;;;12.52;61.79
30708;BME280;17458;48.958;8.284;2023-05-03T00:20:10;101253.59;;;12.37;61.85
30708;BME280;17458;48.958;8.284;2023-05-03T00:22:54;101257.31;;;12.56;61.58
30708;BME280;17458;48.958;8.284;2023-05-03T00:25:38;101247.31;;;12.52;61.69
30708;BME280;17458;48.958;8.284;2023-05-03T00:28:23;101251.63;;;12.33;62.37
30708;BME280;17458;48.958;8.284;2023-05-03T00:31:08;101260.19;;;12.13;63.41
30708;BME280;17458;48.958;8.284;2023-05-03T00:33:53;101255.66;;;12.27;62.54
30708;BME280;17458;48.958;8.284;2023-05-03T00:36:37;101258.13;;;12.24;62.90
30708;BME280;17458;48.958;8.284;2023-05-03T00:39:21;101250.75;;;12.18;62.95
30708;BME280;17458;48.958;8.284;2023-05-03T00:42:04;101259.75;;;12.05;63.43
30708;BME280;17458;48.958;8.284;2023-05-03T00:44:49;101255.72;;;11.97;63.90
30708;BME280;17458;48.958;8.284;2023-05-03T00:47:33;101252.53;;;11.88;64.00
30708;BME280;17458;48.958;8.284;2023-05-03T00:50:19;101245.66;;;11.92;64.02
30708;BME280;17458;48.958;8.284;2023-05-03T00:53:03;101246.59;;;12.08;63.59
30708;BME280;17458;48.958;8.284;2023-05-03T00:55:50;101239.84;;;11.99;63.89
30708;BME280;17458;48.958;8.284;2023-05-03T00:58:35;101241.41;;;11.95;63.93
30708;BME280;17458;48.958;8.284;2023-05-03T01:01:22;101251.28;;;12.13;63.63
30708;BME280;17458;48.958;8.284;2023-05-03T01:04:06;101250.78;;;12.03;64.00
30708;BME280;17458;48.958;8.284;2023-05-03T01:06:58;101243.88;;;12.07;64.00
30708;BME280;17458;48.958;8.284;2023-05-03T01:10:01;101243.53;;;12.32;63.21
30708;BME280;17458;48.958;8.284;2023-05-03T01:13:17;101245.44;;;12.03;64.06
30708;BME280;17458;48.958;8.284;2023-05-03T01:16:11;101230.44;;;12.20;63.73
30708;BME280;17458;48.958;8.284;2023-05-03T01:18:59;101237.94;;;12.27;63.64
30708;BME280;17458;48.958;8.284;2023-05-03T01:21:46;101231.41;;;12.22;63.21
30708;BME280;17458;48.958;8.284;2023-05-03T01:24:40;101234.53;;;11.99;64.16
30708;BME280;17458;48.958;8.284;2023-05-03T01:27:24;101231.53;;;11.93;64.56
30708;BME280;17458;48.958;8.284;2023-05-03T01:30:09;101234.53;;;11.99;64.52
30708;BME280;17458;48.958;8.284;2023-05-03T01:33:13;101227.34;;;11.98;64.73
30708;BME280;17458;48.958;8.284;2023-05-03T01:36:05;101227.06;;;11.93;64.99
30708;BME280;17458;48.958;8.284;2023-05-03T01:38:54;101228.84;;;11.63;65.39
30708;BME280;17458;48.958;8.284;2023-05-03T01:41:40;101233.28;;;11.78;65.38
30708;BME280;17458;48.958;8.284;2023-05-03T01:44:25;101223.47;;;11.77;65.59
30708;BME280;17458;48.958;8.284;2023-05-03T01:47:09;101226.72;;;11.58;65.95
30708;BME280;17458;48.958;8.284;2023-05-03T01:49:53;101226.00;;;11.60;65.99
30708;BME280;17458;48.958;8.284;2023-05-03T01:52:38;101228.38;;;11.70;65.56
30708;BME280;17458;48.958;8.284;2023-05-03T01:55:22;101218.00;;;11.60;65.97
30708;BME280;17458;48.958;8.284;2023-05-03T01:58:06;101213.72;;;11.48;66.50
30708;BME280;17458;48.958;8.284;2023-05-03T02:00:50;101218.84;;;11.30;66.81
30708;BME280;17458;48.958;8.284;2023-05-03T02:03:34;101215.97;;;11.12;67.45
30708;BME280;17458;48.958;8.284;2023-05-03T02:06:18;101213.97;;;11.37;66.75
30708;BME280;17458;48.958;8.284;2023-05-03T02:09:02;101213.03;;;11.08;67.70
30708;BME280;17458;48.958;8.284;2023-05-03T02:11:47;101210.22;;;11.34;66.82
30708;BME280;17458;48.958;8.284;2023-05-03T02:14:31;101215.69;;;11.08;68.01
30708;BME280;17458;48.958;8.284;2023-05-03T02:17:15;101219.38;;;11.24;67.19
30708;BME280;17458;48.958;8.284;2023-05-03T02:20:02;101209.56;;;11.38;66.96
30708;BME280;17458;48.958;8.284;2023-05-03T02:22:49;101217.09;;;11.45;66.21
30708;BME280;17458;48.958;8.284;2023-05-03T02:25:33;101218.47;;;11.38;66.73
30708;BME280;17458;48.958;8.284;2023-05-03T02:28:16;101214.03;;;11.10;67.46
30708;BME280;17458;48.958;8.284;2023-05-03T02:31:01;101214.25;;;10.85;68.60
30708;BME280;17458;48.958;8.284;2023-05-03T02:33:45;101219.28;;;11.08;67.72
30708;BME280;17458;48.958;8.284;2023-05-03T02:36:29;101224.50;;;11.07;67.88
30708;BME280;17458;48.958;8.284;2023-05-03T02:39:14;101223.56;;;11.06;67.53
30708;BME280;17458;48.958;8.284;2023-05-03T02:41:59;101224.00;;;10.99;67.97
30708;BME280;17458;48.958;8.284;2023-05-03T02:44:45;101225.75;;;10.98;68.05
30708;BME280;17458;48.958;8.284;2023-05-03T02:47:29;101230.06;;;10.69;69.05
30708;BME280;17458;48.958;8.284;2023-05-03T02:50:13;101230.69;;;10.64;69.09
30708;BME280;17458;48.958;8.284;2023-05-03T02:52:58;101225.50;;;10.66;68.93
30708;BME280;17458;48.958;8.284;2023-05-03T02:55:43;101227.94;;;10.63;69.15
30708;BME280;17458;48.958;8.284;2023-05-03T02:58:27;101223.81;;;10.68;68.89
30708;BME280;17458;48.958;8.284;2023-05-03T03:01:11;101225.91;;;10.59;68.55
30708;BME280;17458;48.958;8.284;2023-05-03T03:03:55;101226.41;;;10.53;69.03
30708;BME280;17458;48.958;8.284;2023-05-03T03:06:39;101232.47;;;10.51;68.84
30708;BME280;17458;48.958;8.284;2023-05-03T03:09:23;101223.91;;;10.70;68.29
30708;BME280;17458;48.958;8.284;2023-05-03T03:12:07;101229.06;;;10.53;68.59
30708;BME280;17458;48.958;8.284;2023-05-03T03:14:52;101223.59;;;10.50;68.67
30708;BME280;17458;48.958;8.284;2023-05-03T03:17:35;101223.28;;;10.46;68.91
30708;BME280;17458;48.958;8.284;2023-05-03T03:20:24;101226.59;;;10.28;69.39
30708;BME280;17458;48.958;8.284;2023-05-03T03:23:08;101237.16;;;10.55;68.59
30708;BME280;17458;48.958;8.284;2023-05-03T03:25:52;101229.94;;;10.67;67.61
30708;BME280;17458;48.958;8.284;2023-05-03T03:28:37;101228.16;;;10.53;68.15
30708;BME280;17458;48.958;8.284;2023-05-03T03:31:26;101234.72;;;10.45;68.16
30708;BME280;17458;48.958;8.284;2023-05-03T03:34:12;101235.44;;;10.42;68.36
30708;BME280;17458;48.958;8.284;2023-05-03T03:36:57;101228.69;;;10.47;68.21
30708;BME280;17458;48.958;8.284;2023-05-03T03:39:42;101230.94;;;10.41;68.53
30708;BME280;17458;48.958;8.284;2023-05-03T03:42:28;101228.19;;;10.40;68.50
30708;BME280;17458;48.958;8.284;2023-05-03T03:45:13;101230.13;;;10.42;68.40
30708;BME280;17458;48.958;8.284;2023-05-03T03:47:57;101222.47;;;10.47;68.10
30708;BME280;17458;48.958;8.284;2023-05-03T03:50:42;101233.94;;;10.33;68.41
30708;BME280;17458;48.958;8.284;2023-05-03T03:53:27;101237.44;;;10.18;68.60
30708;BME280;17458;48.958;8.284;2023-05-03T03:56:11;101241.81;;;9.91;69.52
30708;BME280;17458;48.958;8.284;2023-05-03T03:58:56;101233.53;;;10.00;69.22
30708;BME280;17458;48.958;8.284;2023-05-03T04:01:41;101238.44;;;10.34;68.13
30708;BME280;17458;48.958;8.284;2023-05-03T04:04:26;101238.41;;;10.47;67.66
30708;BME280;17458;48.958;8.284;2023-05-03T04:07:12;101244.34;;;10.43;67.59
30708;BME280;17458;48.958;8.284;2023-05-03T04:09:56;101239.31;;;10.47;67.42
30708;BME280;17458;48.958;8.284;2023-05-03T04:12:42;101237.75;;;10.23;68.22
30708;BME280;17458;48.958;8.284;2023-05-03T04:15:26;101238.13;;;10.16;68.39
30708;BME280;17458;48.958;8.284;2023-05-03T04:18:14;101231.41;;;10.34;68.21
30708;BME280;17458;48.958;8.284;2023-05-03T04:20:59;101236.94;;;10.24;68.33
30708;BME280;17458;48.958;8.284;2023-05-03T04:23:44;101231.81;;;9.87;69.55
30708;BME280;17458;48.958;8.284;2023-05-03T04:26:32;101235.81;;;9.81;69.86
30708;BME280;17458;48.958;8.284;2023-05-03T04:29:32;101237.72;;;9.96;69.59
30708;BME280;17458;48.958;8.284;2023-05-03T04:32:17;101236.50;;;10.05;69.41
30708;BME280;17458;48.958;8.284;2023-05-03T04:35:08;101232.22;;;10.20;69.17
30708;BME280;17458;48.958;8.284;2023-05-03T04:37:55;101231.19;;;10.05;69.33
30708;BME280;17458;48.958;8.284;2023-05-03T04:40:42;101242.31;;;10.25;68.93
30708;BME280;17458;48.958;8.284;2023-05-03T04:43:28;101236.66;;;10.47;68.29
30708;BME280;17458;48.958;8.284;2023-05-03T04:46:12;101247.66;;;10.67;67.64
30708;BME280;17458;48.958;8.284;2023-05-03T04:48:56;101246.84;;;10.54;67.30
30708;BME280;17458;48.958;8.284;2023-05-03T04:51:40;101250.09;;;10.36;68.10
30708;BME280;17458;48.958;8.284;2023-05-03T04:54:25;101254.44;;;10.48;67.52
30708;BME280;17458;48.958;8.284;2023-05-03T04:57:09;101247.50;;;10.11;68.45
30708;BME280;17458;48.958;8.284;2023-05-03T04:59:53;101251.94;;;10.10;67.90
30708;BME280;17458;48.958;8.284;2023-05-03T05:02:38;101258.31;;;10.14;68.04
30708;BME280;17458;48.958;8.284;2023-05-03T05:05:23;101250.47;;;10.42;67.48
30708;BME280;17458;48.958;8.284;2023-05-03T05:08:07;101255.34;;;10.90;66.06
30708;BME280;17458;48.958;8.284;2023-05-03T05:10:56;101257.84;;;10.74;66.25
30708;BME280;17458;48.958;8.284;2023-05-03T05:13:46;101253.03;;;10.68;66.04
30708;BME280;17458;48.958;8.284;2023-05-03T05:16:30;101260.75;;;10.91;65.05
30708;BME280;17458;48.958;8.284;2023-05-03T05:19:15;101261.16;;;11.12;64.99
30708;BME280;17458;48.958;8.284;2023-05-03T05:21:59;101261.41;;;11.59;63.38
30708;BME280;17458;48.958;8.284;2023-05-03T05:24:54;101253.91;;;11.10;64.16
30708;BME280;17458;48.958;8.284;2023-05-03T05:27:39;101262.59;;;11.50;63.47
30708;BME280;17458;48.958;8.284;2023-05-03T05:30:24;101264.84;;;11.14;64.06
30708;BME280;17458;48.958;8.284;2023-05-03T05:33:09;101264.75;;;11.27;63.55
30708;BME280;17458;48.958;8.284;2023-05-03T05:35:53;101262.97;;;11.56;62.75
30708;BME280;17458;48.958;8.284;2023-05-03T05:38:39;101258.22;;;11.08;64.43
30708;BME280;17458;48.958;8.284;2023-05-03T05:41:24;101261.34;;;11.15;63.95
30708;BME280;17458;48.958;8.284;2023-05-03T05:44:09;101254.25;;;11.44;63.74
30708;BME280;17458;48.958;8.284;2023-05-03T05:46:52;101260.38;;;11.43;63.93
30708;BME280;17458;48.958;8.284;2023-05-03T05:49:37;101254.28;;;11.16;64.80
30708;BME280;17458;48.958;8.284;2023-05-03T05:52:22;101262.66;;;11.51;63.27
30708;BME280;17458;48.958;8.284;2023-05-03T05:55:07;101253.53;;;11.90;63.97
30708;BME280;17458;48.958;8.284;2023-05-03T05:57:51;101254.78;;;11.38;64.86
30708;BME280;17458;48.958;8.284;2023-05-03T06:00:39;101257.38;;;11.81;64.37
30708;BME280;17458;48.958;8.284;2023-05-03T06:03:24;101256.06;;;11.45;64.73
30708;BME280;17458;48.958;8.284;2023-05-03T06:06:08;101260.00;;;12.10;63.02
30708;BME280;17458;48.958;8.284;2023-05-03T06:08:53;101252.31;;;12.46;61.67
30708;BME280;17458;48.958;8.284;2023-05-03T06:11:38;101247.13;;;12.32;63.27
30708;BME280;17458;48.958;8.284;2023-05-03T06:14:23;101244.59;;;12.19;62.71
30708;BME280;17458;48.958;8.284;2023-05-03T06:17:07;101252.50;;;12.65;62.17
30708;BME280;17458;48.958;8.284;2023-05-03T06:19:51;101254.00;;;12.29;62.32
30708;BME280;17458;48.958;8.284;2023-05-03T06:22:36;101252.50;;;12.65;62.21
30708;BME280;17458;48.958;8.284;2023-05-03T06:25:22;101248.81;;;12.47;61.76
30708;BME280;17458;48.958;8.284;2023-05-03T06:28:07;101263.66;;;12.58;62.17
30708;BME280;17458;48.958;8.284;2023-05-03T06:30:53;101253.72;;;12.55;61.96
30708;BME280;17458;48.958;8.284;2023-05-03T06:33:37;101241.69;;;12.31;62.52
30708;BME280;17458;48.958;8.284;2023-05-03T06:36:21;101240.28;;;12.85;62.08
30708;BME280;17458;48.958;8.284;2023-05-03T06:39:05;101240.44;;;13.20;62.04
30708;BME280;17458;48.958;8.284;2023-05-03T06:41:55;101232.13;;;13.64;59.90
30708;BME280;17458;48.958;8.284;2023-05-03T06:44:49;101229.84;;;13.38;60.18
30708;BME280;17458;48.958;8.284;2023-05-03T06:47:33;101237.28;;;13.43;59.87
30708;BME280;17458;48.958;8.284;2023-05-03T06:50:17;101229.94;;;13.73;59.28
30708;BME280;17458;48.958;8.284;2023-05-03T06:53:02;101231.81;;;13.76;60.30
30708;BME280;17458;48.958;8.284;2023-05-03T06:55:47;101232.69;;;13.75;58.82
30708;BME280;17458;48.958;8.284;2023-05-03T06:58:30;101235.31;;;13.57;60.01
30708;BME280;17458;48.958;8.284;2023-05-03T07:01:15;101234.78;;;13.64;59.84
30708;BME280;17458;48.958;8.284;2023-05-03T07:04:01;101225.44;;;13.72;59.43
30708;BME280;17458;48.958;8.284;2023-05-03T07:06:45;101221.25;;;14.13;58.68
30708;BME280;17458;48.958;8.284;2023-05-03T07:09:29;101234.53;;;14.29;58.99
30708;BME280;17458;48.958;8.284;2023-05-03T07:12:14;101237.41;;;14.34;58.85
30708;BME280;17458;48.958;8.284;2023-05-03T07:14:59;101240.56;;;14.80;58.47
30708;BME280;17458;48.958;8.284;2023-05-03T07:17:42;101232.13;;;14.71;57.33
30708;BME280;17458;48.958;8.284;2023-05-03T07:20:27;101242.53;;;15.03;57.41
30708;BME280;17458;48.958;8.284;2023-05-03T07:23:11;101237.56;;;15.51;56.27
30708;BME280;17458;48.958;8.284;2023-05-03T07:25:55;101232.97;;;15.08;56.12
30708;BME280;17458;48.958;8.284;2023-05-03T07:28:39;101224.03;;;15.08;56.11
30708;BME280;17458;48.958;8.284;2023-05-03T07:31:23;101230.84;;;15.20;56.06
30708;BME280;17458;48.958;8.284;2023-05-03T07:34:07;101220.28;;;15.04;56.54
30708;BME280;17458;48.958;8.284;2023-05-03T07:36:51;101221.66;;;15.14;57.41
30708;BME280;17458;48.958;8.284;2023-05-03T07:39:35;101225.19;;;15.34;55.82
30708;BME280;17458;48.958;8.284;2023-05-03T07:42:19;101224.41;;;15.15;57.33
30708;BME280;17458;48.958;8.284;2023-05-03T07:45:08;101215.78;;;15.22;56.14
30708;BME280;17458;48.958;8.284;2023-05-03T07:47:54;101222.09;;;15.44;56.04
30708;BME280;17458;48.958;8.284;2023-05-03T07:50:43;101204.97;;;15.40;56.41
30708;BME280;17458;48.958;8.284;2023-05-03T07:53:27;101208.38;;;15.55;56.50
30708;BME280;17458;48.958;8.284;2023-05-03T07:56:11;101198.72;;;15.40;56.40
30708;BME280;17458;48.958;8.284;2023-05-03T07:58:56;101202.88;;;15.94;55.34
30708;BME280;17458;48.958;8.284;2023-05-03T08:01:40;101208.19;;;15.72;56.62
30708;BME280;17458;48.958;8.284;2023-05-03T08:04:24;101208.84;;;16.52;55.34
30708;BME280;17458;48.958;8.284;2023-05-03T08:07:08;101217.72;;;16.51;53.08
30708;BME280;17458;48.958;8.284;2023-05-03T08:09:52;101210.78;;;16.12;55.55
30708;BME280;17458;48.958;8.284;2023-05-03T08:12:36;101221.16;;;16.04;55.22
30708;BME280;17458;48.958;8.284;2023-05-03T08:15:20;101216.28;;;16.37;55.07
30708;BME280;17458;48.958;8.284;2023-05-03T08:18:05;101214.03;;;15.63;55.92
30708;BME280;17458;48.958;8.284;2023-05-03T08:20:49;101216.06;;;15.89;56.08
30708;BME280;17458;48.958;8.284;2023-05-03T08:23:33;101227.38;;;15.82;55.84
30708;BME280;17458;48.958;8.284;2023-05-03T08:26:17;101234.06;;;16.35;54.49
30708;BME280;17458;48.958;8.284;2023-05-03T08:29:01;101229.88;;;16.64;55.30
30708;BME280;17458;48.958;8.284;2023-05-03T08:31:46;101219.44;;;16.94;53.33
30708;BME280;17458;48.958;8.284;2023-05-03T08:34:30;101228.00;;;17.08;53.54
30708;BME280;17458;48.958;8.284;2023-05-03T08:37:14;101235.25;;;16.64;54.29
30708;BME280;17458;48.958;8.284;2023-05-03T08:40:00;101226.00;;;17.02;54.55
30708;BME280;17458;48.958;8.284;2023-05-03T08:42:44;101232.31;;;16.80;53.54
30708;BME280;17458;48.958;8.284;2023-05-03T08:45:31;101233.31;;;17.06;54.04
30708;BME280;17458;48.958;8.284;2023-05-03T08:48:15;101227.06;;;17.31;54.30
30708;BME280;17458;48.958;8.284;2023-05-03T08:51:03;101229.13;;;17.14;53.40
30708;BME280;17458;48.958;8.284;2023-05-03T08:53:48;101209.19;;;17.31;52.87
30708;BME280;17458;48.958;8.284;2023-05-03T08:56:38;101219.25;;;17.62;52.36
30708;BME280;17458;48.958;8.284;2023-05-03T08:59:23;101217.91;;;17.50;52.38
30708;BME280;17458;48.958;8.284;2023-05-03T09:02:10;101219.63;;;17.48;51.98
30708;BME280;17458;48.958;8.284;2023-05-03T09:04:55;101216.19;;;17.76;51.63
30708;BME280;17458;48.958;8.284;2023-05-03T09:07:39;101215.84;;;17.92;51.26
30708;BME280;17458;48.958;8.284;2023-05-03T09:10:23;101214.28;;;17.73;51.63
30708;BME280;17458;48.958;8.284;2023-05-03T09:13:07;101211.63;;;17.49;52.36
30708;BME280;17458;48.958;8.284;2023-05-03T09:15:55;101213.28;;;17.69;52.54
30708;BME280;17458;48.958;8.284;2023-05-03T09:18:40;101219.75;;;17.27;52.56
30708;BME280;17458;48.958;8.284;2023-05-03T09:21:28;101214.88;;;18.17;50.92
30708;BME280;17458;48.958;8.284;2023-05-03T09:27:01;101220.84;;;18.06;52.40
30708;BME280;17458;48.958;8.284;2023-05-03T09:30:16;101216.09;;;18.26;50.80
30708;BME280;17458;48.958;8.284;2023-05-03T09:33:00;101219.09;;;18.35;50.71
30708;BME280;17458;48.958;8.284;2023-05-03T09:38:38;101212.91;;;18.38;50.52
30708;BME280;17458;48.958;8.284;2023-05-03T09:41:27;101216.47;;;18.94;49.68
30708;BME280;17458;48.958;8.284;2023-05-03T09:44:11;101218.72;;;18.23;50.40
30708;BME280;17458;48.958;8.284;2023-05-03T09:47:06;101215.63;;;17.86;51.99
30708;BME280;17458;48.958;8.284;2023-05-03T09:49:50;101211.34;;;18.18;51.25
30708;BME280;17458;48.958;8.284;2023-05-03T09:52:34;101211.00;;;18.07;51.17
30708;BME280;17458;48.958;8.284;2023-05-03T09:55:20;101216.31;;;18.89;50.63
30708;BME280;17458;48.958;8.284;2023-05-03T09:58:06;101211.09;;;18.95;49.29
30708;BME280;17458;48.958;8.284;2023-05-03T10:00:50;101198.69;;;19.30;49.20
30708;BME280;17458;48.958;8.284;2023-05-03T10:03:46;101199.00;;;19.42;48.59
30708;BME280;17458;48.958;8.284;2023-05-03T10:06:39;101201.19;;;19.24;49.65
30708;BME280;17458;48.958;8.284;2023-05-03T10:12:17;101199.44;;;18.65;49.44
30708;BME280;17458;48.958;8.284;2023-05-03T10:15:05;101196.06;;;19.02;49.12
30708;BME280;17458;48.958;8.284;2023-05-03T10:17:52;101191.78;;;19.08;49.91
30708;BME280;17458;48.958;8.284;2023-05-03T10:20:49;101185.91;;;19.55;48.39
30708;BME280;17458;48.958;8.284;2023-05-03T10:23:35;101186.41;;;19.73;48.47
30708;BME280;17458;48.958;8.284;2023-05-03T10:26:19;101179.28;;;19.75;47.62
30708;BME280;17458;48.958;8.284;2023-05-03T10:29:05;101172.63;;;19.97;47.86
30708;BME280;17458;48.958;8.284;2023-05-03T10:31:50;101176.81;;;19.50;48.53
30708;BME280;17458;48.958;8.284;2023-05-03T10:34:35;101165.28;;;19.90;48.73
30708;BME280;17458;48.958;8.284;2023-05-03T10:37:25;101169.19;;;19.03;49.70
30708;BME280;17458;48.958;8.284;2023-05-03T10:42:55;101160.06;;;19.61;48.28
30708;BME280;17458;48.958;8.284;2023-05-03T10:45:39;101164.53;;;19.29;49.15
30708;BME280;17458;48.958;8.284;2023-05-03T10:48:23;101151.69;;;19.52;49.53
30708;BME280;17458;48.958;8.284;2023-05-03T10:54:11;101155.91;;;20.11;48.45
30708;BME280;17458;48.958;8.284;2023-05-03T10:56:55;101160.31;;;20.44;46.71
30708;BME280;17458;48.958;8.284;2023-05-03T10:59:46;101147.72;;;20.43;47.02
30708;BME280;17458;48.958;8.284;2023-05-03T11:02:35;101147.03;;;20.53;46.39
30708;BME280;17458;48.958;8.284;2023-05-03T11:05:21;101142.84;;;20.28;46.68
30708;BME280;17458;48.958;8.284;2023-05-03T11:08:12;101143.59;;;20.23;46.72
30708;BME280;17458;48.958;8.284;2023-05-03T11:10:59;101142.94;;;20.33;46.03
30708;BME280;17458;48.958;8.284;2023-05-03T11:13:43;101138.84;;;20.50;45.48
30708;BME280;17458;48.958;8.284;2023-05-03T11:16:27;101143.25;;;20.45;45.66
30708;BME280;17458;48.958;8.284;2023-05-03T11:19:13;101133.94;;;20.32;47.05
30708;BME280;17458;48.958;8.284;2023-05-03T11:21:57;101140.16;;;20.67;44.68
30708;BME280;17458;48.958;8.284;2023-05-03T11:24:42;101140.19;;;19.94;46.16
30708;BME280;17458;48.958;8.284;2023-05-03T11:27:25;101126.22;;;20.47;45.56
30708;BME280;17458;48.958;8.284;2023-05-03T11:30:11;101126.34;;;20.53;44.79
30708;BME280;17458;48.958;8.284;2023-05-03T11:32:55;101127.47;;;20.26;44.35
30708;BME280;17458;48.958;8.284;2023-05-03T11:35:39;101121.53;;;20.81;44.98
30708;BME280;17458;48.958;8.284;2023-05-03T11:38:25;101116.66;;;20.62;44.57
30708;BME280;17458;48.958;8.284;2023-05-03T11:41:12;101112.81;;;20.52;44.43
30708;BME280;17458;48.958;8.284;2023-05-03T11:43:56;101124.38;;;20.45;45.06
30708;BME280;17458;48.958;8.284;2023-05-03T11:46:41;101109.50;;;20.65;43.94
30708;BME280;17458;48.958;8.284;2023-05-03T11:49:26;101105.84;;;21.05;44.11
30708;BME280;17458;48.958;8.284;2023-05-03T11:52:09;101098.72;;;21.10;44.55
30708;BME280;17458;48.958;8.284;2023-05-03T11:54:54;101103.78;;;21.39;44.51
30708;BME280;17458;48.958;8.284;2023-05-03T11:57:39;101099.97;;;20.82;43.50
30708;BME280;17458;48.958;8.284;2023-05-03T12:00:25;101092.19;;;20.98;44.79
30708;BME280;17458;48.958;8.284;2023-05-03T12:03:09;101097.28;;;20.82;43.92
30708;BME280;17458;48.958;8.284;2023-05-03T12:05:57;101092.03;;;20.92;43.29
30708;BME280;17458;48.958;8.284;2023-05-03T12:08:41;101090.03;;;21.25;43.25
30708;BME280;17458;48.958;8.284;2023-05-03T12:11:25;101078.66;;;21.43;42.35
30708;BME280;17458;48.958;8.284;2023-05-03T12:14:10;101088.41;;;21.35;43.20
30708;BME280;17458;48.958;8.284;2023-05-03T12:16:57;101097.03;;;21.65;43.31
30708;BME280;17458;48.958;8.284;2023-05-03T12:19:41;101076.75;;;21.37;43.27
30708;BME280;17458;48.958;8.284;2023-05-03T12:22:26;101090.97;;;21.80;42.16
30708;BME280;17458;48.958;8.284;2023-05-03T12:25:10;101084.22;;;22.06;44.28
30708;BME280;17458;48.958;8.284;2023-05-03T12:27:59;101079.19;;;22.31;42.22
30708;BME280;17458;48.958;8.284;2023-05-03T12:30:43;101071.81;;;22.22;41.61
30708;BME280;17458;48.958;8.284;2023-05-03T12:33:27;101074.88;;;21.86;42.22
30708;BME280;17458;48.958;8.284;2023-05-03T12:36:11;101065.44;;;22.18;42.13
30708;BME280;17458;48.958;8.284;2023-05-03T12:38:56;101063.88;;;21.74;42.05
30708;BME280;17458;48.958;8.284;2023-05-03T12:41:40;101062.13;;;21.79;41.26
30708;BME280;17458;48.958;8.284;2023-05-03T12:44:24;101059.53;;;22.47;40.73
30708;BME280;17458;48.958;8.284;2023-05-03T12:47:08;101047.50;;;22.25;41.07
30708;BME280;17458;48.958;8.284;2023-05-03T12:49:52;101043.94;;;21.69;41.71
30708;BME280;17458;48.958;8.284;2023-05-03T12:52:39;101039.31;;;22.19;41.95
30708;BME280;17458;48.958;8.284;2023-05-03T12:55:23;101059.28;;;21.70;41.41
30708;BME280;17458;48.958;8.284;2023-05-03T12:58:08;101039.53;;;21.74;41.25
30708;BME280;17458;48.958;8.284;2023-05-03T13:00:52;101039.06;;;22.01;41.58
30708;BME280;17458;48.958;8.284;2023-05-03T13:03:37;101043.22;;;21.80;40.92
30708;BME280;17458;48.958;8.284;2023-05-03T13:06:21;101026.25;;;21.92;41.19
30708;BME280;17458;48.958;8.284;2023-05-03T13:09:05;101032.19;;;22.25;39.11
30708;BME280;17458;48.958;8.284;2023-05-03T13:11:49;101022.34;;;22.34;38.86
30708;BME280;17458;48.958;8.284;2023-05-03T13:14:34;101019.44;;;22.15;41.11
30708;BME280;17458;48.958;8.284;2023-05-03T13:17:19;101020.03;;;22.64;40.48
30708;BME280;17458;48.958;8.284;2023-05-03T13:20:06;101011.72;;;22.47;40.26
30708;BME280;17458;48.958;8.284;2023-05-03T13:22:50;101023.25;;;23.08;40.15
30708;BME280;17458;48.958;8.284;2023-05-03T13:25:34;101012.19;;;22.84;39.50
30708;BME280;17458;48.958;8.284;2023-05-03T13:28:20;101009.44;;;22.82;39.85
30708;BME280;17458;48.958;8.284;2023-05-03T13:31:07;101004.09;;;22.90;39.26
30708;BME280;17458;48.958;8.284;2023-05-03T13:33:53;101006.59;;;22.01;40.26
30708;BME280;17458;48.958;8.284;2023-05-03T13:36:37;101004.13;;;22.19;39.46
30708;BME280;17458;48.958;8.284;2023-05-03T13:39:22;100995.28;;;22.32;39.52
30708;BME280;17458;48.958;8.284;2023-05-03T13:42:06;100998.13;;;22.43;40.71
30708;BME280;17458;48.958;8.284;2023-05-03T13:44:51;100994.09;;;22.81;39.54
30708;BME280;17458;48.958;8.284;2023-05-03T13:47:35;100992.09;;;22.68;39.12
30708;BME280;17458;48.958;8.284;2023-05-03T13:50:19;100992.09;;;22.67;38.41
30708;BME280;17458;48.958;8.284;2023-05-03T13:53:04;100989.44;;;22.74;37.75
30708;BME280;17458;48.958;8.284;2023-05-03T13:55:48;100987.50;;;22.59;38.66
30708;BME280;17458;48.958;8.284;2023-05-03T13:58:32;100982.53;;;23.02;38.21
30708;BME280;17458;48.958;8.284;2023-05-03T14:01:20;100975.13;;;22.81;38.42
30708;BME280;17458;48.958;8.284;2023-05-03T14:04:04;100978.97;;;23.05;37.98
30708;BME280;17458;48.958;8.284;2023-05-03T14:06:48;100971.75;;;23.05;39.18
30708;BME280;17458;48.958;8.284;2023-05-03T14:09:32;100965.97;;;22.70;39.44
30708;BME280;17458;48.958;8.284;2023-05-03T14:12:22;100952.50;;;22.76;38.50
30708;BME280;17458;48.958;8.284;2023-05-03T14:15:06;100951.78;;;22.95;38.65
30708;BME280;17458;48.958;8.284;2023-05-03T14:17:50;100947.78;;;22.58;38.09
30708;BME280;17458;48.958;8.284;2023-05-03T14:20:35;100944.69;;;23.10;37.49
30708;BME280;17458;48.958;8.284;2023-05-03T14:23:19;100936.50;;;22.99;36.76
30708;BME280;17458;48.958;8.284;2023-05-03T14:26:03;100932.25;;;22.41;37.47
30708;BME280;17458;48.958;8.284;2023-05-03T14:28:47;100929.16;;;22.86;37.25
30708;BME280;17458;48.958;8.284;2023-05-03T14:31:32;100928.34;;;23.02;37.56
30708;BME280;17458;48.958;8.284;2023-05-03T14:34:16;100933.97;;;22.31;38.50
30708;BME280;17458;48.958;8.284;2023-05-03T14:37:00;100937.19;;;22.78;37.80
30708;BME280;17458;48.958;8.284;2023-05-03T14:39:45;100937.94;;;22.67;38.82